sensor_id;sensor_type;location;lat;lon;timestamp;pressure;altitude;pressure_sealevel;temperature;humidity
54870;BME280;40756;-37.950;145.008;2023-01-25T00:01:22;100856.11;;;26.62;35.75
54870;BME280;40756;-37.950;145.008;2023-01-25T00:03:51;100851.96;;;26.90;36.73
54870;BME280;40756;-37.950;145.008;2023-01-25T00:06:21;100847.07;;;27.09;37.33
54870;BME280;40756;-37.950;145.008;2023-01-25T00:08:51;100846.30;;;26.21;38.50
54870;BME280;40756;-37.950;145.008;2023-01-25T00:11:21;100846.86;;;27.09;38.05
54870;BME280;40756;-37.950;145.008;2023-01-25T00:13:53;100841.69;;;26.08;38.92
54870;BME280;40756;-37.950;145.008;2023-01-25T00:16:23;100834.98;;;26.67;38.18
54870;BME280;40756;-37.950;145.008;2023-01-25T00:18:52;100830.92;;;27.18;37.45
54870;BME280;40756;-37.950;145.008;2023-01-25T00:21:24;100826.88;;;27.01;36.95
54870;BME280;40756;-37.950;145.008;2023-01-25T00:23:56;100830.18;;;27.49;36.82
54870;BME280;40756;-37.950;145.008;2023-01-25T00:26:31;100829.04;;;27.42;35.79
54870;BME280;40756;-37.950;145.008;2023-01-25T00:29:05;100824.11;;;28.17;34.20
54870;BME280;40756;-37.950;145.008;2023-01-25T00:31:45;100823.56;;;27.92;33.60
54870;BME280;40756;-37.950;145.008;2023-01-25T00:35:44;100820.25;;;28.47;32.46
54870;BME280;40756;-37.950;145.008;2023-01-25T00:38:28;100810.94;;;28.64;34.42
54870;BME280;40756;-37.950;145.008;2023-01-25T00:41:00;100811.37;;;28.94;34.00
54870;BME280;40756;-37.950;145.008;2023-01-25T00:43:33;100806.64;;;28.54;33.78
54870;BME280;40756;-37.950;145.008;2023-01-25T00:46:05;100800.09;;;29.15;33.87
54870;BME280;40756;-37.950;145.008;2023-01-25T00:48:36;100793.80;;;29.16;33.25
54870;BME280;40756;-37.950;145.008;2023-01-25T00:51:08;100788.55;;;29.56;31.57
54870;BME280;40756;-37.950;145.008;2023-01-25T00:53:41;100785.68;;;29.36;29.26
54870;BME280;40756;-37.950;145.008;2023-01-25T00:56:13;100778.89;;;29.56;30.23
54870;BME280;40756;-37.950;145.008;2023-01-25T00:58:43;100771.90;;;29.55;25.71
54870;BME280;40756;-37.950;145.008;2023-01-25T01:01:13;100771.91;;;30.13;29.64
54870;BME280;40756;-37.950;145.008;2023-01-25T01:03:46;100765.77;;;30.51;27.23
54870;BME280;40756;-37.950;145.008;2023-01-25T01:06:17;100756.26;;;30.36;27.20
54870;BME280;40756;-37.950;145.008;2023-01-25T01:08:47;100755.45;;;30.37;24.20
54870;BME280;40756;-37.950;145.008;2023-01-25T01:11:17;100753.08;;;30.24;27.14
54870;BME280;40756;-37.950;145.008;2023-01-25T01:13:47;100748.56;;;29.97;29.02
54870;BME280;40756;-37.950;145.008;2023-01-25T01:16:17;100748.82;;;29.39;27.64
54870;BME280;40756;-37.950;145.008;2023-01-25T01:18:48;100746.58;;;30.17;28.09
54870;BME280;40756;-37.950;145.008;2023-01-25T01:21:18;100744.64;;;30.05;27.12
54870;BME280;40756;-37.950;145.008;2023-01-25T01:23:52;100742.57;;;29.27;27.94
54870;BME280;40756;-37.950;145.008;2023-01-25T01:26:22;100740.04;;;30.06;28.63
54870;BME280;40756;-37.950;145.008;2023-01-25T01:28:52;100738.92;;;30.36;27.85
54870;BME280;40756;-37.950;145.008;2023-01-25T01:31:24;100734.34;;;30.31;27.37
54870;BME280;40756;-37.950;145.008;2023-01-25T01:33:56;100734.51;;;30.66;27.88
54870;BME280;40756;-37.950;145.008;2023-01-25T01:36:29;100736.69;;;30.86;28.52
54870;BME280;40756;-37.950;145.008;2023-01-25T01:39:00;100738.76;;;30.43;31.99
54870;BME280;40756;-37.950;145.008;2023-01-25T01:41:32;100743.11;;;29.62;32.33
54870;BME280;40756;-37.950;145.008;2023-01-25T01:44:02;100752.25;;;28.75;34.95
54870;BME280;40756;-37.950;145.008;2023-01-25T01:46:36;100754.88;;;28.92;35.48
54870;BME280;40756;-37.950;145.008;2023-01-25T01:49:13;100752.08;;;28.87;35.63
54870;BME280;40756;-37.950;145.008;2023-01-25T01:51:47;100750.40;;;28.86;36.57
54870;BME280;40756;-37.950;145.008;2023-01-25T01:54:20;100759.68;;;27.21;38.30
54870;BME280;40756;-37.950;145.008;2023-01-25T01:56:57;100754.93;;;27.42;38.53
54870;BME280;40756;-37.950;145.008;2023-01-25T01:59:36;100753.97;;;28.46;37.61
54870;BME280;40756;-37.950;145.008;2023-01-25T02:02:12;100757.33;;;28.17;37.86
54870;BME280;40756;-37.950;145.008;2023-01-25T02:04:46;100751.95;;;28.66;37.35
54870;BME280;40756;-37.950;145.008;2023-01-25T02:07:22;100749.64;;;28.39;37.11
54870;BME280;40756;-37.950;145.008;2023-01-25T02:09:54;100752.55;;;28.43;36.84
54870;BME280;40756;-37.950;145.008;2023-01-25T02:12:25;100741.59;;;28.13;36.98
54870;BME280;40756;-37.950;145.008;2023-01-25T02:14:57;100738.13;;;28.66;36.37
54870;BME280;40756;-37.950;145.008;2023-01-25T02:17:29;100735.79;;;29.05;35.56
54870;BME280;40756;-37.950;145.008;2023-01-25T02:20:02;100735.78;;;28.96;35.71
54870;BME280;40756;-37.950;145.008;2023-01-25T02:22:43;100734.70;;;29.54;35.53
54870;BME280;40756;-37.950;145.008;2023-01-25T02:25:16;100741.72;;;29.52;34.82
54870;BME280;40756;-37.950;145.008;2023-01-25T02:27:52;100739.17;;;29.79;34.88
54870;BME280;40756;-37.950;145.008;2023-01-25T02:30:22;100741.18;;;30.16;34.06
54870;BME280;40756;-37.950;145.008;2023-01-25T02:32:53;100737.04;;;29.76;33.94
54870;BME280;40756;-37.950;145.008;2023-01-25T02:35:38;100734.72;;;29.70;32.48
54870;BME280;40756;-37.950;145.008;2023-01-25T02:38:15;100731.65;;;29.89;33.62
54870;BME280;40756;-37.950;145.008;2023-01-25T02:40:51;100724.81;;;29.99;33.15
54870;BME280;40756;-37.950;145.008;2023-01-25T02:43:27;100722.18;;;30.56;32.59
54870;BME280;40756;-37.950;145.008;2023-01-25T02:46:04;100720.66;;;30.21;31.88
54870;BME280;40756;-37.950;145.008;2023-01-25T02:48:38;100714.07;;;30.90;29.97
54870;BME280;40756;-37.950;145.008;2023-01-25T02:51:08;100714.73;;;31.29;27.56
54870;BME280;40756;-37.950;145.008;2023-01-25T02:53:39;100717.53;;;31.63;26.57
54870;BME280;40756;-37.950;145.008;2023-01-25T02:56:10;100720.09;;;30.68;31.88
54870;BME280;40756;-37.950;145.008;2023-01-25T02:58:41;100727.30;;;31.31;32.67
54870;BME280;40756;-37.950;145.008;2023-01-25T03:01:16;100723.29;;;30.45;35.25
54870;BME280;40756;-37.950;145.008;2023-01-25T03:03:46;100721.22;;;31.13;34.02
54870;BME280;40756;-37.950;145.008;2023-01-25T03:06:16;100725.54;;;31.28;33.28
54870;BME280;40756;-37.950;145.008;2023-01-25T03:08:46;100720.20;;;31.07;32.80
54870;BME280;40756;-37.950;145.008;2023-01-25T03:11:16;100728.84;;;31.45;32.93
54870;BME280;40756;-37.950;145.008;2023-01-25T03:13:45;100722.62;;;31.18;33.06
54870;BME280;40756;-37.950;145.008;2023-01-25T03:16:19;100717.61;;;30.33;33.43
54870;BME280;40756;-37.950;145.008;2023-01-25T03:18:53;100713.38;;;30.90;32.15
54870;BME280;40756;-37.950;145.008;2023-01-25T03:21:24;100716.83;;;31.17;31.63
54870;BME280;40756;-37.950;145.008;2023-01-25T03:23:58;100711.17;;;31.06;31.33
54870;BME280;40756;-37.950;145.008;2023-01-25T03:26:28;100712.23;;;31.15;31.56
54870;BME280;40756;-37.950;145.008;2023-01-25T03:29:00;100707.45;;;32.01;31.07
54870;BME280;40756;-37.950;145.008;2023-01-25T03:31:32;100705.19;;;31.72;29.50
54870;BME280;40756;-37.950;145.008;2023-01-25T03:34:01;100709.78;;;31.33;29.41
54870;BME280;40756;-37.950;145.008;2023-01-25T03:36:31;100708.02;;;31.75;28.81
54870;BME280;40756;-37.950;145.008;2023-01-25T03:39:04;100705.35;;;31.48;27.96
54870;BME280;40756;-37.950;145.008;2023-01-25T03:41:34;100711.47;;;32.25;27.06
54870;BME280;40756;-37.950;145.008;2023-01-25T03:44:05;100701.70;;;32.13;27.11
54870;BME280;40756;-37.950;145.008;2023-01-25T03:46:37;100693.68;;;32.27;27.94
54870;BME280;40756;-37.950;145.008;2023-01-25T03:49:12;100690.39;;;31.61;27.89
54870;BME280;40756;-37.950;145.008;2023-01-25T03:51:43;100689.01;;;31.47;26.46
54870;BME280;40756;-37.950;145.008;2023-01-25T03:54:15;100682.73;;;32.25;26.54
54870;BME280;40756;-37.950;145.008;2023-01-25T03:56:45;100674.53;;;32.87;26.85
54870;BME280;40756;-37.950;145.008;2023-01-25T03:59:17;100673.76;;;32.71;26.28
54870;BME280;40756;-37.950;145.008;2023-01-25T04:01:49;100670.01;;;33.11;23.56
54870;BME280;40756;-37.950;145.008;2023-01-25T04:04:19;100668.65;;;33.29;23.75
54870;BME280;40756;-37.950;145.008;2023-01-25T04:06:49;100663.90;;;33.15;23.33
54870;BME280;40756;-37.950;145.008;2023-01-25T04:09:20;100660.43;;;33.80;22.94
54870;BME280;40756;-37.950;145.008;2023-01-25T04:11:50;100663.11;;;33.62;22.62
54870;BME280;40756;-37.950;145.008;2023-01-25T04:14:20;100665.31;;;33.22;23.48
54870;BME280;40756;-37.950;145.008;2023-01-25T04:16:51;100664.88;;;32.68;23.91
54870;BME280;40756;-37.950;145.008;2023-01-25T04:19:22;100660.06;;;32.81;24.24
54870;BME280;40756;-37.950;145.008;2023-01-25T04:21:53;100659.68;;;33.26;23.69
54870;BME280;40756;-37.950;145.008;2023-01-25T04:24:24;100657.64;;;33.55;24.00
54870;BME280;40756;-37.950;145.008;2023-01-25T04:26:55;100653.06;;;32.91;23.46
54870;BME280;40756;-37.950;145.008;2023-01-25T04:29:28;100651.70;;;33.11;23.31
54870;BME280;40756;-37.950;145.008;2023-01-25T04:31:57;100651.07;;;33.05;23.79
54870;BME280;40756;-37.950;145.008;2023-01-25T04:34:31;100646.74;;;33.27;23.43
54870;BME280;40756;-37.950;145.008;2023-01-25T04:37:00;100647.41;;;33.11;23.40
54870;BME280;40756;-37.950;145.008;2023-01-25T04:39:34;100643.19;;;32.95;23.53
54870;BME280;40756;-37.950;145.008;2023-01-25T04:42:04;100639.87;;;32.34;24.02
54870;BME280;40756;-37.950;145.008;2023-01-25T04:44:39;100637.37;;;32.53;23.97
54870;BME280;40756;-37.950;145.008;2023-01-25T04:47:09;100637.49;;;33.22;23.70
54870;BME280;40756;-37.950;145.008;2023-01-25T04:49:40;100633.27;;;33.48;22.05
54870;BME280;40756;-37.950;145.008;2023-01-25T04:52:16;100634.13;;;33.41;22.38
54870;BME280;40756;-37.950;145.008;2023-01-25T04:54:51;100630.78;;;33.66;22.15
54870;BME280;40756;-37.950;145.008;2023-01-25T04:57:22;100631.89;;;33.54;21.62
54870;BME280;40756;-37.950;145.008;2023-01-25T04:59:55;100636.56;;;33.88;21.61
54870;BME280;40756;-37.950;145.008;2023-01-25T05:02:27;100628.22;;;33.26;21.97
54870;BME280;40756;-37.950;145.008;2023-01-25T05:05:00;100626.17;;;33.72;21.65
54870;BME280;40756;-37.950;145.008;2023-01-25T05:07:29;100625.79;;;33.79;24.37
54870;BME280;40756;-37.950;145.008;2023-01-25T05:10:01;100628.84;;;33.03;26.48
54870;BME280;40756;-37.950;145.008;2023-01-25T05:12:32;100632.74;;;32.63;26.39
54870;BME280;40756;-37.950;145.008;2023-01-25T05:15:02;100627.84;;;32.11;26.13
54870;BME280;40756;-37.950;145.008;2023-01-25T05:17:31;100621.71;;;31.90;28.45
54870;BME280;40756;-37.950;145.008;2023-01-25T05:20:00;100619.59;;;32.43;28.96
54870;BME280;40756;-37.950;145.008;2023-01-25T05:22:29;100623.87;;;31.79;26.80
54870;BME280;40756;-37.950;145.008;2023-01-25T05:24:59;100618.64;;;32.44;28.01
54870;BME280;40756;-37.950;145.008;2023-01-25T05:27:28;100626.17;;;31.06;31.76
54870;BME280;40756;-37.950;145.008;2023-01-25T05:29:57;100618.42;;;30.59;32.17
54870;BME280;40756;-37.950;145.008;2023-01-25T05:32:27;100615.64;;;31.54;31.42
54870;BME280;40756;-37.950;145.008;2023-01-25T05:34:56;100614.23;;;30.61;33.54
54870;BME280;40756;-37.950;145.008;2023-01-25T05:37:26;100610.07;;;31.23;32.38
54870;BME280;40756;-37.950;145.008;2023-01-25T05:39:55;100614.02;;;30.90;31.97
54870;BME280;40756;-37.950;145.008;2023-01-25T05:42:24;100613.64;;;31.37;31.07
54870;BME280;40756;-37.950;145.008;2023-01-25T05:44:54;100608.81;;;31.12;31.87
54870;BME280;40756;-37.950;145.008;2023-01-25T05:47:23;100603.37;;;31.93;30.56
54870;BME280;40756;-37.950;145.008;2023-01-25T05:49:53;100601.44;;;31.86;29.97
54870;BME280;40756;-37.950;145.008;2023-01-25T05:52:23;100594.63;;;32.15;29.12
54870;BME280;40756;-37.950;145.008;2023-01-25T05:54:52;100589.08;;;31.79;29.08
54870;BME280;40756;-37.950;145.008;2023-01-25T05:57:21;100588.61;;;31.91;27.90
54870;BME280;40756;-37.950;145.008;2023-01-25T05:59:51;100584.71;;;31.61;27.88
54870;BME280;40756;-37.950;145.008;2023-01-25T06:02:20;100586.55;;;32.28;28.03
54870;BME280;40756;-37.950;145.008;2023-01-25T06:04:49;100583.40;;;32.24;27.82
54870;BME280;40756;-37.950;145.008;2023-01-25T06:07:18;100580.56;;;31.96;28.35
54870;BME280;40756;-37.950;145.008;2023-01-25T06:09:47;100582.33;;;32.02;28.77
54870;BME280;40756;-37.950;145.008;2023-01-25T06:12:20;100575.49;;;32.17;28.96
54870;BME280;40756;-37.950;145.008;2023-01-25T06:14:49;100582.78;;;31.23;28.76
54870;BME280;40756;-37.950;145.008;2023-01-25T06:17:19;100578.51;;;31.39;29.12
54870;BME280;40756;-37.950;145.008;2023-01-25T06:19:49;100572.65;;;31.39;27.78
54870;BME280;40756;-37.950;145.008;2023-01-25T06:22:18;100568.61;;;31.70;28.16
54870;BME280;40756;-37.950;145.008;2023-01-25T06:24:47;100564.60;;;31.88;27.94
54870;BME280;40756;-37.950;145.008;2023-01-25T06:27:17;100560.67;;;31.86;28.19
54870;BME280;40756;-37.950;145.008;2023-01-25T06:29:46;100553.17;;;31.78;28.26
54870;BME280;40756;-37.950;145.008;2023-01-25T06:32:15;100550.75;;;32.10;29.37
54870;BME280;40756;-37.950;145.008;2023-01-25T06:34:45;100551.27;;;31.95;30.06
54870;BME280;40756;-37.950;145.008;2023-01-25T06:37:14;100549.77;;;31.62;30.59
54870;BME280;40756;-37.950;145.008;2023-01-25T06:39:43;100545.74;;;32.10;31.37
54870;BME280;40756;-37.950;145.008;2023-01-25T06:42:12;100545.93;;;31.91;31.97
54870;BME280;40756;-37.950;145.008;2023-01-25T06:44:42;100543.68;;;30.61;32.72
54870;BME280;40756;-37.950;145.008;2023-01-25T06:47:12;100541.53;;;31.40;31.48
54870;BME280;40756;-37.950;145.008;2023-01-25T06:49:41;100536.98;;;31.14;31.98
54870;BME280;40756;-37.950;145.008;2023-01-25T06:52:12;100531.99;;;31.55;31.98
54870;BME280;40756;-37.950;145.008;2023-01-25T06:54:41;100528.86;;;31.50;32.00
54870;BME280;40756;-37.950;145.008;2023-01-25T06:57:11;100525.37;;;32.14;32.28
54870;BME280;40756;-37.950;145.008;2023-01-25T06:59:40;100528.42;;;31.52;32.24
54870;BME280;40756;-37.950;145.008;2023-01-25T07:02:14;100525.33;;;31.16;32.45
54870;BME280;40756;-37.950;145.008;2023-01-25T07:04:44;100521.08;;;32.11;31.53
54870;BME280;40756;-37.950;145.008;2023-01-25T07:07:13;100524.18;;;31.54;32.46
54870;BME280;40756;-37.950;145.008;2023-01-25T07:09:42;100526.63;;;30.92;35.32
54870;BME280;40756;-37.950;145.008;2023-01-25T07:12:12;100523.86;;;30.49;35.67
54870;BME280;40756;-37.950;145.008;2023-01-25T07:14:41;100523.48;;;29.99;35.58
54870;BME280;40756;-37.950;145.008;2023-01-25T07:17:10;100516.64;;;30.53;35.02
54870;BME280;40756;-37.950;145.008;2023-01-25T07:19:40;100516.85;;;30.91;34.42
54870;BME280;40756;-37.950;145.008;2023-01-25T07:22:09;100514.43;;;30.83;34.51
54870;BME280;40756;-37.950;145.008;2023-01-25T07:24:39;100510.84;;;31.11;33.08
54870;BME280;40756;-37.950;145.008;2023-01-25T07:27:08;100506.63;;;31.19;31.81
54870;BME280;40756;-37.950;145.008;2023-01-25T07:29:37;100508.98;;;31.42;32.25
54870;BME280;40756;-37.950;145.008;2023-01-25T07:32:06;100510.15;;;31.40;32.08
54870;BME280;40756;-37.950;145.008;2023-01-25T07:34:36;100516.11;;;31.26;32.14
54870;BME280;40756;-37.950;145.008;2023-01-25T07:37:05;100524.12;;;30.60;33.65
54870;BME280;40756;-37.950;145.008;2023-01-25T07:39:34;100527.32;;;31.01;33.94
54870;BME280;40756;-37.950;145.008;2023-01-25T07:42:04;100543.39;;;30.04;33.49
54870;BME280;40756;-37.950;145.008;2023-01-25T07:44:33;100558.68;;;28.64;39.40
54870;BME280;40756;-37.950;145.008;2023-01-25T07:47:03;100555.90;;;27.79;40.62
54870;BME280;40756;-37.950;145.008;2023-01-25T07:49:32;100562.12;;;27.58;40.95
54870;BME280;40756;-37.950;145.008;2023-01-25T07:52:02;100572.71;;;26.09;43.44
54870;BME280;40756;-37.950;145.008;2023-01-25T07:54:33;100572.64;;;26.03;42.91
54870;BME280;40756;-37.950;145.008;2023-01-25T07:57:21;100577.15;;;26.12;43.20
54870;BME280;40756;-37.950;145.008;2023-01-25T07:59:51;100578.41;;;24.76;45.76
54870;BME280;40756;-37.950;145.008;2023-01-25T08:02:21;100580.25;;;24.87;45.99
54870;BME280;40756;-37.950;145.008;2023-01-25T08:04:50;100577.12;;;24.27;47.06
54870;BME280;40756;-37.950;145.008;2023-01-25T08:07:20;100578.61;;;24.94;45.44
54870;BME280;40756;-37.950;145.008;2023-01-25T08:09:50;100581.48;;;24.07;47.02
54870;BME280;40756;-37.950;145.008;2023-01-25T08:12:19;100586.42;;;24.76;46.83
54870;BME280;40756;-37.950;145.008;2023-01-25T08:14:55;100582.68;;;24.51;46.64
54870;BME280;40756;-37.950;145.008;2023-01-25T08:17:25;100594.66;;;24.03;47.05
54870;BME280;40756;-37.950;145.008;2023-01-25T08:19:54;100585.25;;;24.00;47.29
54870;BME280;40756;-37.950;145.008;2023-01-25T08:22:24;100593.57;;;23.56;48.17
54870;BME280;40756;-37.950;145.008;2023-01-25T08:24:54;100596.37;;;22.92;49.11
54870;BME280;40756;-37.950;145.008;2023-01-25T08:27:24;100602.26;;;23.20;48.86
54870;BME280;40756;-37.950;145.008;2023-01-25T08:29:53;100600.22;;;23.36;49.86
54870;BME280;40756;-37.950;145.008;2023-01-25T08:32:23;100598.96;;;23.03;50.94
54870;BME280;40756;-37.950;145.008;2023-01-25T08:34:53;100593.17;;;23.47;50.72
54870;BME280;40756;-37.950;145.008;2023-01-25T08:37:22;100595.03;;;23.68;50.62
54870;BME280;40756;-37.950;145.008;2023-01-25T08:39:51;100589.77;;;23.23;51.94
54870;BME280;40756;-37.950;145.008;2023-01-25T08:42:20;100600.60;;;23.71;50.64
54870;BME280;40756;-37.950;145.008;2023-01-25T08:44:49;100605.07;;;23.46;49.07
54870;BME280;40756;-37.950;145.008;2023-01-25T08:47:19;100609.85;;;23.47;47.49
54870;BME280;40756;-37.950;145.008;2023-01-25T08:49:48;100618.18;;;23.11;47.37
54870;BME280;40756;-37.950;145.008;2023-01-25T08:52:18;100625.00;;;23.62;46.91
54870;BME280;40756;-37.950;145.008;2023-01-25T08:54:48;100636.00;;;23.85;46.76
54870;BME280;40756;-37.950;145.008;2023-01-25T08:57:18;100627.87;;;22.82;47.75
54870;BME280;40756;-37.950;145.008;2023-01-25T08:59:52;100636.36;;;23.52;47.28
54870;BME280;40756;-37.950;145.008;2023-01-25T09:02:22;100645.08;;;23.16;47.64
54870;BME280;40756;-37.950;145.008;2023-01-25T09:04:51;100646.10;;;23.12;47.36
54870;BME280;40756;-37.950;145.008;2023-01-25T09:07:20;100662.03;;;22.78;47.59
54870;BME280;40756;-37.950;145.008;2023-01-25T09:09:50;100675.08;;;22.86;47.27
54870;BME280;40756;-37.950;145.008;2023-01-25T09:12:19;100685.95;;;22.64;47.45
54870;BME280;40756;-37.950;145.008;2023-01-25T09:14:49;100689.02;;;22.27;47.93
54870;BME280;40756;-37.950;145.008;2023-01-25T09:17:18;100702.21;;;22.01;48.06
54870;BME280;40756;-37.950;145.008;2023-01-25T09:19:49;100697.74;;;22.48;47.75
54870;BME280;40756;-37.950;145.008;2023-01-25T09:22:19;100704.21;;;22.65;46.71
54870;BME280;40756;-37.950;145.008;2023-01-25T09:24:48;100708.28;;;22.29;46.99
54870;BME280;40756;-37.950;145.008;2023-01-25T09:27:17;100719.17;;;22.51;47.30
54870;BME280;40756;-37.950;145.008;2023-01-25T09:29:47;100731.90;;;22.63;46.85
54870;BME280;40756;-37.950;145.008;2023-01-25T09:32:16;100738.33;;;22.89;46.50
54870;BME280;40756;-37.950;145.008;2023-01-25T09:34:46;100742.61;;;22.66;45.96
54870;BME280;40756;-37.950;145.008;2023-01-25T09:37:15;100755.01;;;22.11;46.79
54870;BME280;40756;-37.950;145.008;2023-01-25T09:39:45;100761.49;;;22.34;46.34
54870;BME280;40756;-37.950;145.008;2023-01-25T09:42:43;100765.48;;;22.58;45.76
54870;BME280;40756;-37.950;145.008;2023-01-25T09:45:26;100770.56;;;23.19;44.48
54870;BME280;40756;-37.950;145.008;2023-01-25T09:48:08;100783.69;;;22.65;45.70
54870;BME280;40756;-37.950;145.008;2023-01-25T09:50:46;100787.82;;;22.16;46.42
54870;BME280;40756;-37.950;145.008;2023-01-25T09:53:26;100802.31;;;21.82;46.94
54870;BME280;40756;-37.950;145.008;2023-01-25T09:56:01;100810.85;;;22.19;46.77
54870;BME280;40756;-37.950;145.008;2023-01-25T09:58:36;100816.73;;;21.79;47.52
54870;BME280;40756;-37.950;145.008;2023-01-25T10:01:17;100824.54;;;21.70;47.30
54870;BME280;40756;-37.950;145.008;2023-01-25T10:03:54;100834.27;;;21.64;47.58
54870;BME280;40756;-37.950;145.008;2023-01-25T10:06:36;100847.47;;;21.51;47.84
54870;BME280;40756;-37.950;145.008;2023-01-25T10:09:16;100858.69;;;21.38;48.58
54870;BME280;40756;-37.950;145.008;2023-01-25T10:11:48;100871.63;;;21.71;48.40
54870;BME280;40756;-37.950;145.008;2023-01-25T10:14:19;100881.98;;;21.29;48.80
54870;BME280;40756;-37.950;145.008;2023-01-25T10:17:09;100886.40;;;20.86;49.58
54870;BME280;40756;-37.950;145.008;2023-01-25T10:19:53;100881.21;;;20.87;49.18
54870;BME280;40756;-37.950;145.008;2023-01-25T10:22:27;100889.92;;;21.08;49.71
54870;BME280;40756;-37.950;145.008;2023-01-25T10:25:12;100896.39;;;21.21;50.41
54870;BME280;40756;-37.950;145.008;2023-01-25T10:27:58;100907.90;;;21.49;50.59
54870;BME280;40756;-37.950;145.008;2023-01-25T10:30:36;100923.15;;;20.99;51.42
54870;BME280;40756;-37.950;145.008;2023-01-25T10:33:13;100933.45;;;19.77;52.93
54870;BME280;40756;-37.950;145.008;2023-01-25T10:35:45;100941.50;;;20.35;52.42
54870;BME280;40756;-37.950;145.008;2023-01-25T10:38:26;100956.13;;;21.10;51.21
54870;BME280;40756;-37.950;145.008;2023-01-25T10:41:00;100970.75;;;20.68;51.79
54870;BME280;40756;-37.950;145.008;2023-01-25T10:43:32;100976.19;;;20.52;51.81
54870;BME280;40756;-37.950;145.008;2023-01-25T10:46:02;100979.19;;;20.72;51.50
54870;BME280;40756;-37.950;145.008;2023-01-25T10:48:35;100980.75;;;20.88;50.86
54870;BME280;40756;-37.950;145.008;2023-01-25T10:51:04;100978.58;;;20.63;51.72
54870;BME280;40756;-37.950;145.008;2023-01-25T10:53:35;100983.83;;;20.31;52.22
54870;BME280;40756;-37.950;145.008;2023-01-25T10:56:22;100993.51;;;20.61;51.64
54870;BME280;40756;-37.950;145.008;2023-01-25T10:59:04;101012.30;;;20.28;52.80
54870;BME280;40756;-37.950;145.008;2023-01-25T11:01:35;101012.04;;;20.47;52.38
54870;BME280;40756;-37.950;145.008;2023-01-25T11:04:24;101016.86;;;21.06;51.30
54870;BME280;40756;-37.950;145.008;2023-01-25T11:06:57;101021.56;;;20.99;51.96
54870;BME280;40756;-37.950;145.008;2023-01-25T11:09:36;101023.81;;;20.65;51.51
54870;BME280;40756;-37.950;145.008;2023-01-25T11:12:17;101025.46;;;21.15;51.20
54870;BME280;40756;-37.950;145.008;2023-01-25T11:14:48;101025.60;;;21.19;50.78
54870;BME280;40756;-37.950;145.008;2023-01-25T11:17:24;101030.79;;;21.27;50.73
54870;BME280;40756;-37.950;145.008;2023-01-25T11:20:18;101033.59;;;21.15;50.45
54870;BME280;40756;-37.950;145.008;2023-01-25T11:22:52;101037.36;;;21.13;50.22
54870;BME280;40756;-37.950;145.008;2023-01-25T11:25:31;101047.93;;;21.43;50.30
54870;BME280;40756;-37.950;145.008;2023-01-25T11:28:21;101049.27;;;21.79;49.63
54870;BME280;40756;-37.950;145.008;2023-01-25T11:30:52;101039.32;;;20.86;50.10
54870;BME280;40756;-37.950;145.008;2023-01-25T11:33:24;101041.77;;;21.26;49.32
54870;BME280;40756;-37.950;145.008;2023-01-25T11:36:09;101043.03;;;21.03;49.43
54870;BME280;40756;-37.950;145.008;2023-01-25T11:38:49;101043.26;;;20.87;48.89
54870;BME280;40756;-37.950;145.008;2023-01-25T11:41:26;101045.94;;;21.16;48.96
54870;BME280;40756;-37.950;145.008;2023-01-25T11:44:17;101047.55;;;21.17;48.53
54870;BME280;40756;-37.950;145.008;2023-01-25T11:46:57;101050.72;;;20.93;48.93
54870;BME280;40756;-37.950;145.008;2023-01-25T11:49:42;101052.35;;;20.58;49.42
54870;BME280;40756;-37.950;145.008;2023-01-25T11:52:24;101059.83;;;20.69;49.10
54870;BME280;40756;-37.950;145.008;2023-01-25T11:55:05;101058.26;;;21.17;48.65
54870;BME280;40756;-37.950;145.008;2023-01-25T11:57:50;101061.43;;;20.83;49.65
54870;BME280;40756;-37.950;145.008;2023-01-25T12:00:41;101059.11;;;21.12;49.61
54870;BME280;40756;-37.950;145.008;2023-01-25T12:03:49;101056.73;;;21.07;49.60
54870;BME280;40756;-37.950;145.008;2023-01-25T12:06:34;101061.04;;;21.15;48.82
54870;BME280;40756;-37.950;145.008;2023-01-25T12:09:21;101060.90;;;21.52;48.16
54870;BME280;40756;-37.950;145.008;2023-01-25T12:12:08;101059.25;;;21.33;48.01
54870;BME280;40756;-37.950;145.008;2023-01-25T12:14:51;101054.04;;;21.26;47.64
54870;BME280;40756;-37.950;145.008;2023-01-25T12:17:32;101055.56;;;21.36;47.33
54870;BME280;40756;-37.950;145.008;2023-01-25T12:21:04;101055.89;;;21.28;47.98
54870;BME280;40756;-37.950;145.008;2023-01-25T12:23:43;101058.10;;;21.61;47.26
54870;BME280;40756;-37.950;145.008;2023-01-25T12:26:22;101058.27;;;21.60;46.93
54870;BME280;40756;-37.950;145.008;2023-01-25T12:29:01;101062.43;;;21.44;47.46
54870;BME280;40756;-37.950;145.008;2023-01-25T12:31:38;101061.55;;;21.56;47.11
54870;BME280;40756;-37.950;145.008;2023-01-25T12:34:15;101064.98;;;21.16;47.79
54870;BME280;40756;-37.950;145.008;2023-01-25T12:36:49;101063.45;;;21.37;47.62
54870;BME280;40756;-37.950;145.008;2023-01-25T12:39:21;101067.33;;;21.07;48.52
54870;BME280;40756;-37.950;145.008;2023-01-25T12:41:54;101062.89;;;21.47;47.83
54870;BME280;40756;-37.950;145.008;2023-01-25T12:44:32;101063.16;;;20.87;47.81
54870;BME280;40756;-37.950;145.008;2023-01-25T12:47:06;101065.98;;;21.15;48.01
54870;BME280;40756;-37.950;145.008;2023-01-25T12:49:43;101066.23;;;20.80;48.68
54870;BME280;40756;-37.950;145.008;2023-01-25T12:52:23;101066.39;;;20.97;48.51